Latest Weather Observations for Davis*

IDT60801

Issued at 3:35 pm EDT Wednesday 22 October 2014 (issued every 30 minutes, with the page automatically refreshed every 10 minutes)

About weather observations | Map of weather stations | Latest weather observations for ANT | Other Formats
Station Details ID: 300000 Name: DAVIS Lat: -68.57 Lon: 77.97 Height: 18.0 m
Data from the previous 72 hours. | See also: Recent months at Davis*
Date/Time
EDT
Temp
°C
App
Temp
°C
Dew
Point
Rel
Hum
%
Delta-T
°C
Wind Press
QNH
hPa
Press
MSL
hPa
Rain
since 9 am
mm
Dir
 
Spd
km/h
Gust
km/h
Spd
kts
Gust
kts
22/03:30pm -12.2 -19.1 -22.7 41 - N 17 20 9 11 984.6 - -
22/03:00pm -12.2 -19.5 -23.0 40 - N 19 22 10 12 984.6 - -
22/02:30pm -12.3 -19.6 -22.8 41 - N 19 24 10 13 984.7 - -
22/02:00pm -12.2 -20.8 -23.3 39 - NNE 26 30 14 16 984.6 984.8 -
22/01:30pm -12.5 -20.8 -23.5 39 - NNE 24 32 13 17 984.2 - -
22/01:00pm -12.3 -19.2 -23.9 37 - NNE 17 24 9 13 984.3 - -
22/12:30pm -13.0 -20.5 -23.7 40 - NNE 20 24 11 13 984.1 - -
22/12:00pm -12.9 -20.4 -24.5 37 - NNE 20 28 11 15 984.0 - -
22/11:30am -13.7 -20.3 -24.1 41 - NNE 15 20 8 11 984.0 - -
22/11:00am -13.8 -20.8 -24.7 39 - NE 17 20 9 11 984.0 984.2 -
22/10:30am -14.3 -20.9 -24.4 42 - E 15 20 8 11 984.0 - -
22/10:00am -13.7 -20.3 -24.3 40 - ENE 15 20 8 11 984.0 - -
22/09:30am -14.0 -20.9 -24.1 42 - ENE 17 20 9 11 984.0 - -
22/09:00am -13.8 -21.1 -23.1 45 - NE 19 24 10 13 983.7 - -
22/08:30am -13.9 -20.8 -21.4 53 - NE 17 20 9 11 983.5 - -
22/08:00am -13.8 -19.9 -21.5 52 - ENE 13 17 7 9 983.3 983.5 -
22/07:30am -13.5 -20.0 -21.7 50 - NE 15 17 8 9 982.9 - -
22/07:00am -13.4 -20.7 -22.3 47 - NE 19 22 10 12 982.7 - -
22/06:30am -12.9 -20.2 -22.8 43 - ENE 19 22 10 12 982.3 - -
22/06:00am -13.1 -20.4 -22.0 47 - NE 19 22 10 12 982.1 - -
22/05:30am -12.7 -20.2 -22.1 45 - ENE 20 24 11 13 981.9 - -
22/05:00am -12.5 -20.3 -21.4 47 - ENE 22 28 12 15 981.8 982.0 -
22/04:30am -12.1 -20.3 -22.3 42 - ENE 24 30 13 16 981.6 - -
22/04:00am -11.9 -19.3 -21.4 45 - ENE 20 24 11 13 981.6 - -
22/03:30am -11.6 -18.4 -20.9 46 - NE 17 20 9 11 981.5 - -
22/03:00am -11.3 -16.5 -18.5 55 - E 9 15 5 8 981.4 - -
22/02:30am -11.0 -14.5 -18.4 54 - CALM 0 0 0 0 981.3 - -
22/02:00am -10.8 -14.3 -18.3 54 - CALM 0 0 0 0 981.2 981.4 -
22/01:30am -10.5 -14.0 -18.6 51 - CALM 0 0 0 0 981.2 - -
22/01:00am -10.4 -14.7 -19.0 49 - N 4 6 2 3 981.2 - -
22/12:30am -10.2 -15.1 -18.4 51 - N 7 7 4 4 980.9 - -
22/12:00am -9.9 -14.8 -18.8 48 - N 7 9 4 5 980.8 - -
 
Date/Time
EDT
Temp
°C
App
Temp
°C
Dew
Point
Rel
Hum
%
Delta-T
°C
Wind Press
QNH
hPa
Press
MSL
hPa
Rain
since 9 am
mm
Dir
 
Spd
km/h
Gust
km/h
Spd
kts
Gust
kts
21/11:30pm -9.4 -14.1 -18.3 48 - NNW 6 7 3 4 980.7 - -
21/11:00pm -9.0 -13.6 -17.0 52 - NNW 6 7 3 4 980.7 980.9 -
21/10:30pm -8.8 -13.5 -18.3 46 - N 6 7 3 4 980.7 - -
21/10:00pm -8.9 -13.7 -17.9 48 - NNW 7 9 4 5 980.6 - -
21/09:30pm -9.1 -14.7 -18.6 46 - N 11 11 6 6 980.6 - -
21/09:00pm -8.8 -14.4 -19.1 43 - N 11 13 6 7 980.6 - -
21/08:30pm -8.5 -14.2 -20.5 37 - NNW 11 15 6 8 980.6 - -
21/08:00pm -8.6 -14.7 -21.3 35 - N 13 15 7 8 980.6 980.8 -
21/07:30pm -8.1 -13.7 -19.0 41 - N 11 13 6 7 980.6 - -
21/07:00pm -8.1 -14.2 -19.9 38 - N 13 17 7 9 980.5 - -
21/06:30pm -8.6 -14.3 -20.3 38 - N 11 15 6 8 980.4 - -
21/06:00pm -9.2 -15.6 -19.7 42 - N 15 19 8 10 980.4 - -
21/05:30pm -9.5 -15.9 -19.2 45 - N 15 19 8 10 980.4 - -
21/05:00pm -9.3 -15.7 -19.3 44 - N 15 17 8 9 980.3 980.5 -
21/04:30pm -9.3 -15.3 -19.5 43 - N 13 17 7 9 980.3 - -
21/04:00pm -9.2 -15.9 -17.4 51 - N 17 20 9 11 980.3 - -
21/03:30pm -8.7 -15.8 -18.7 44 - NNE 19 24 10 13 980.2 - -
21/03:00pm -9.1 -16.5 -20.2 40 - NNE 20 26 11 14 980.1 - -
21/02:30pm -9.3 -17.1 -20.6 39 - NNE 22 28 12 15 980.1 - -
21/02:00pm -9.6 -17.8 -20.9 39 - NNE 24 30 13 16 980.0 980.2 -
21/01:30pm -9.4 -17.6 -22.6 33 - NE 24 35 13 19 980.0 - -
21/01:00pm -9.6 -16.9 -22.2 35 - NE 19 24 10 13 979.9 - -
21/12:30pm -10.4 -16.9 -22.5 36 - ENE 15 19 8 10 980.1 - -
21/12:00pm -10.8 -17.0 -23.2 35 - ENE 13 17 7 9 980.0 - -
21/11:30am -11.5 -18.0 -22.1 41 - ENE 15 19 8 10 979.9 - -
21/11:00am -12.0 -18.1 -22.0 43 - ENE 13 17 7 9 979.8 980.0 -
21/10:30am -12.1 -19.4 -22.1 43 - ENE 19 22 10 12 979.7 - -
21/10:00am -12.0 -19.8 -22.5 41 - NE 22 26 12 14 979.6 - -
21/09:30am -12.1 -19.6 -22.3 42 - ENE 20 26 11 14 979.6 - -
21/09:00am -11.8 -19.1 -22.6 40 - E 19 20 10 11 979.5 - -
21/08:30am -12.2 -19.1 -22.2 43 - ENE 17 20 9 11 979.4 - -
21/08:00am -12.3 -19.1 -21.0 48 - E 17 22 9 12 979.5 979.7 -
21/07:30am -11.9 -18.8 -21.6 44 - ENE 17 20 9 11 979.6 - -
21/07:00am -11.8 -18.3 -21.0 46 - ENE 15 17 8 9 979.5 - -
21/06:30am -11.9 -18.0 -20.4 49 - ENE 13 15 7 8 979.6 - -
21/06:00am -11.5 -17.9 -20.0 49 - ENE 15 17 8 9 979.5 - -
21/05:30am -11.1 -18.3 -20.1 47 - NE 19 20 10 11 979.4 - -
21/05:00am -11.0 -18.2 -19.6 49 - ENE 19 20 10 11 979.4 979.6 -
21/04:30am -10.8 -17.6 -19.2 50 - ENE 17 20 9 11 979.5 - -
21/04:00am -10.3 -17.7 -19.2 48 - ENE 20 24 11 13 979.4 - -
21/03:30am -9.8 -17.0 -19.0 47 - ENE 19 22 10 12 979.4 - -
21/03:00am -9.8 -14.6 -16.9 56 - NE 7 9 4 5 979.4 - -
21/02:30am -9.9 -13.3 -16.6 58 - CALM 0 7 0 4 979.5 - -
21/02:00am -8.9 -13.5 -17.2 51 - SE 6 7 3 4 979.4 979.6 -
21/01:30am -8.7 -13.9 -16.7 52 - S 9 11 5 6 979.6 - -
21/01:00am -8.6 -13.1 -15.3 58 - S 6 7 3 4 979.6 - -
21/12:30am -8.1 -12.3 -16.2 52 - S 4 7 2 4 979.7 - -
21/12:00am -7.9 -12.6 -16.0 52 - SSW 7 7 4 4 979.7 - -
 
Date/Time
EDT
Temp
°C
App
Temp
°C
Dew
Point
Rel
Hum
%
Delta-T
°C
Wind Press
QNH
hPa
Press
MSL
hPa
Rain
since 9 am
mm
Dir
 
Spd
km/h
Gust
km/h
Spd
kts
Gust
kts
20/11:30pm -7.9 -13.0 -15.8 53 - SW 9 13 5 7 979.8 - -
20/11:00pm -8.4 -13.5 -15.4 57 - WSW 9 11 5 6 979.9 980.1 -
20/10:30pm -8.0 -13.2 -17.3 47 - WSW 9 13 5 7 980.1 - -
20/10:00pm -7.7 -12.5 -16.8 48 - WSW 7 9 4 5 980.3 - -
20/09:30pm -8.1 -12.7 -16.9 49 - NNW 6 7 3 4 980.5 - -
20/09:00pm -8.0 -12.8 -16.8 49 - NNW 7 9 4 5 980.5 - -
20/08:30pm -8.0 -13.2 -17.5 46 - NNW 9 11 5 6 980.6 - -
20/08:00pm -7.6 -13.5 -15.7 52 - N 13 15 7 8 980.7 980.9 -
20/07:30pm -7.6 -14.0 -18.8 40 - N 15 19 8 10 980.9 - -
20/07:00pm -7.5 -13.5 -18.2 42 - N 13 17 7 9 981.0 - -
20/06:30pm -7.2 -14.3 -18.5 40 - N 19 26 10 14 981.2 - -
20/06:00pm -7.1 -14.4 -17.0 45 - NNE 20 26 11 14 981.3 - -
20/05:30pm -7.1 -14.3 -19.3 37 - N 19 22 10 12 981.4 - -
20/05:00pm -7.4 -15.1 -18.6 40 - NNE 22 32 12 17 981.5 981.7 -
20/04:30pm -8.2 -14.6 -19.1 41 - N 15 19 8 10 981.6 - -
20/04:00pm -8.4 -15.2 -19.5 40 - N 17 20 9 11 981.9 - -
20/03:30pm -8.0 -16.2 -21.1 34 - NNE 24 32 13 17 981.9 - -
20/03:00pm -8.6 -16.4 -21.6 34 - NNE 22 30 12 16 981.9 - -
20/02:30pm -8.8 -16.2 -21.4 35 - NNE 20 28 11 15 982.0 - -
20/02:00pm -8.8 -15.3 -21.4 35 - NNE 15 20 8 11 982.2 982.4 -
20/01:30pm -9.4 -16.7 -23.0 32 - NE 19 26 10 14 982.2 - -
20/01:00pm -9.5 -16.4 -23.1 32 - NE 17 24 9 13 982.3 - -
20/12:30pm -10.2 -17.5 -23.3 33 - ENE 19 26 10 14 982.3 - -
20/12:00pm -10.3 -16.5 -24.1 31 - E 13 20 7 11 982.4 - -
20/11:30am -11.7 -17.9 -24.7 33 - ESE 13 17 7 9 982.6 - -
20/11:00am -12.4 -19.0 -25.0 34 - E 15 17 8 9 982.5 982.7 -
20/10:30am -12.9 -19.5 -24.8 36 - E 15 19 8 10 982.6 - -
20/10:00am -13.0 -20.0 -24.6 37 - E 17 19 9 10 982.6 - -
20/09:30am -12.7 -19.3 -24.0 38 - E 15 19 8 10 982.8 - -
20/09:00am -12.2 -19.5 -23.9 37 - E 19 22 10 12 982.6 - -
20/08:30am -12.7 -19.6 -23.2 41 - E 17 20 9 11 982.7 - -
20/08:00am -12.7 -19.2 -22.6 43 - E 15 20 8 11 983.0 983.2 -
20/07:30am -12.8 -18.5 -22.2 45 - ESE 11 15 6 8 983.2 - -
20/07:00am -12.5 -18.6 -22.4 43 - ESE 13 15 7 8 983.3 - -
20/06:30am -12.4 -18.2 -22.6 42 - E 11 13 6 7 983.3 - -
20/06:00am -12.3 -18.0 -21.5 46 - ESE 11 13 6 7 983.4 - -
20/05:30am -12.0 -17.7 -21.7 44 - ESE 11 11 6 6 983.4 - -
20/05:00am -11.8 -17.5 -21.5 44 - E 11 13 6 7 983.4 983.6 -
20/04:30am -12.1 -18.6 -21.3 46 - E 15 17 8 9 983.4 - -
20/04:00am -11.8 -18.6 -21.0 46 - E 17 17 9 9 983.4 - -
20/03:30am -11.6 -18.4 -20.6 47 - E 17 19 9 10 983.6 - -
20/03:00am -11.4 -18.6 -20.2 48 - E 19 20 10 11 983.8 - -
20/02:30am -11.3 -17.7 -18.7 54 - E 15 15 8 8 984.0 - -
20/02:00am -10.6 -15.8 -17.6 56 - ESE 9 11 5 6 984.3 984.5 -
20/01:30am -10.6 -15.8 -16.8 60 - SSE 9 11 5 6 984.4 - -
20/01:00am -9.7 -14.9 -18.6 48 - SSE 9 11 5 6 984.6 - -
20/12:30am -10.0 -14.3 -17.7 53 - WSW 4 6 2 3 985.0 - -
20/12:00am -8.7 -13.3 -17.4 49 - WSW 6 7 3 4 985.2 - -
 
Date/Time
EDT
Temp
°C
App
Temp
°C
Dew
Point
Rel
Hum
%
Delta-T
°C
Wind Press
QNH
hPa
Press
MSL
hPa
Rain
since 9 am
mm
Dir
 
Spd
km/h
Gust
km/h
Spd
kts
Gust
kts
19/11:30pm -8.6 -13.7 -16.2 54 - SW 9 13 5 7 985.6 - -
19/11:00pm -8.2 -13.4 -17.7 46 - W 9 13 5 7 985.9 986.1 -
19/10:30pm -8.5 -13.4 -18.3 45 - NE 7 13 4 7 986.3 - -
19/10:00pm -8.8 -13.5 -18.3 46 - NNW 6 7 3 4 986.5 - -
19/09:30pm -8.4 -13.2 -17.4 48 - NW 7 9 4 5 986.9 - -
19/09:00pm -8.3 -13.2 -18.9 42 - NW 7 9 4 5 987.2 - -
19/08:30pm -8.5 -13.4 -19.9 39 - NW 7 9 4 5 987.4 - -
19/08:00pm -8.5 -13.4 -19.6 40 - NW 7 9 4 5 987.6 987.9 -

Other Formats:

Comma delimited format used in spreadsheet applications
http://www.bom.gov.au/fwo/IDT60803/IDT60803.89571.axf

JavaScript Object Notation format (JSON) in row-major order
http://www.bom.gov.au/fwo/IDT60803/IDT60803.89571.json